Disclaimer

Please do not use the information listed here in-flight or in-navigation, as they are not provided to us by the airports but are provided by volunteers, so they might be outdated.

Search


Regions


Airport information page

Radio informations:
Tower (TWR) - 118.7 MHz
RDO - 5680 MHz

Airport informations:
Latitude: 16° 03' 02.74" N
Longitude: 016° 27' 47.42" W
Elevation: 9 feet - 3 meters
Operating hours: Remarks
Operating agency: Civil government, landing fees and diplomatic clearance may be required
Timezone: UTC 0
Fuel: 100/130 octane gasoline, leaded, MIL-L-5572F (GREEN)

Jet fuel avaiable but type is unknown.

Runway information:
01/19 - 4300 x 125 feet< - >1311 x 38 meters
18/36 - 6230 x 100 feet< - >1899 x 30 meters

Recent METARs:
GOSS 131300Z 02004KT CAVOK 32/15 Q1011
GOSS 131400Z 36006KT CAVOK 27/18 Q1010
GOSS 131400Z 36006KT CAVOK 27/18 Q1010

Airport on the map: